Time;durP1;ratioP1;P1;durP2;ratioP2;P2;SDS_P1;SDS_P2;PMS_P1;PMS_P2;Temp;Humidity;BMP_temperature;BMP_pressure;BME280_temperature;BME280_humidity;BME280_pressure;Samples;Min_cycle;Max_cycle;Signal;HPM_P1;HPM_P2
2023/09/08 00:02:25;;;;;;;10.73;7.70;;;;;;;20.18;55.74;93117.44;2051534;70;20142;-78
2023/09/08 00:04:57;;;;;;;11.30;7.35;;;;;;;20.11;55.64;93110.06;2054869;70;20670;-80
2023/09/08 00:07:23;;;;;;;10.32;7.05;;;;;;;20.03;56.30;93110.56;2054981;69;20138;-76
2023/09/08 00:09:51;;;;;;;12.48;7.60;;;;;;;20.09;55.69;93112.88;2055046;70;20138;-76
2023/09/08 00:12:21;;;;;;;11.43;7.40;;;;;;;20.02;56.07;93114.81;2055168;70;20140;-77
2023/09/08 00:14:46;;;;;;;13.80;7.38;;;;;;;19.92;56.84;93111.59;2055001;70;20142;-77
2023/09/08 00:17:15;;;;;;;10.35;7.55;;;;;;;19.93;56.80;93107.38;2055111;70;20244;-79
2023/09/08 00:19:41;;;;;;;10.95;7.50;;;;;;;19.95;56.77;93110.28;2054910;70;20184;-77
2023/09/08 00:22:07;;;;;;;9.85;7.35;;;;;;;20.00;55.87;93114.00;2055088;70;20150;-77
2023/09/08 00:24:34;;;;;;;9.40;6.78;;;;;;;20.00;55.81;93126.16;2051332;70;20609;-76
2023/09/08 00:27:01;;;;;;;9.98;6.95;;;;;;;20.03;56.58;93116.28;2051800;70;20134;-76
2023/09/08 00:29:30;;;;;;;11.18;7.20;;;;;;;19.98;57.19;93116.81;2054848;70;20142;-77
2023/09/08 00:31:56;;;;;;;9.73;7.30;;;;;;;19.95;56.90;93113.13;2054743;70;20176;-77
2023/09/08 00:34:23;;;;;;;9.68;7.55;;;;;;;19.91;56.18;93118.00;2051980;70;20134;-79
2023/09/08 00:36:51;;;;;;;10.07;6.95;;;;;;;19.87;56.93;93115.00;2054783;69;20142;-77
2023/09/08 00:39:17;;;;;;;11.60;7.28;;;;;;;19.70;58.09;93103.06;2051310;70;20649;-77
2023/09/08 00:41:43;;;;;;;12.25;7.32;;;;;;;19.45;58.37;93115.72;2048685;70;20272;-77
2023/09/08 00:44:11;;;;;;;9.82;7.50;;;;;;;19.66;57.03;93111.47;2054834;70;20153;-78
2023/09/08 00:46:38;;;;;;;8.60;6.80;;;;;;;19.74;56.22;93106.00;2051339;70;20688;-76
2023/09/08 00:49:08;;;;;;;8.82;7.20;;;;;;;19.70;56.26;93111.63;2051347;70;20229;-76
2023/09/08 00:51:34;;;;;;;9.20;7.22;;;;;;;19.70;56.74;93111.63;2054891;70;20172;-78
2023/09/08 00:54:01;;;;;;;10.95;7.60;;;;;;;19.84;56.01;93111.34;2054654;70;20152;-77
2023/09/08 00:56:29;;;;;;;10.43;7.13;;;;;;;19.83;55.82;93109.16;2051343;70;20146;-76
2023/09/08 00:58:57;;;;;;;10.23;7.20;;;;;;;19.87;55.47;93103.56;2051420;70;20153;-76
2023/09/08 01:01:23;;;;;;;8.85;7.18;;;;;;;19.76;55.65;93103.25;2051119;70;20233;-76
2023/09/08 01:03:49;;;;;;;9.85;7.60;;;;;;;19.80;55.28;93100.53;2054637;70;20138;-77
2023/09/08 01:06:16;;;;;;;8.23;6.45;;;;;;;19.74;55.95;93096.72;2051582;70;20584;-78
2023/09/08 01:08:43;;;;;;;10.25;7.40;;;;;;;19.75;55.52;93103.91;2051067;70;20213;-78
2023/09/08 01:11:09;;;;;;;11.20;7.28;;;;;;;19.65;55.28;93103.56;2051641;70;20173;-78
2023/09/08 01:13:35;;;;;;;10.45;7.50;;;;;;;19.41;56.18;93107.03;2051764;70;20229;-77
2023/09/08 01:16:03;;;;;;;9.73;6.70;;;;;;;19.71;56.46;93110.22;2050734;70;20165;-78
2023/09/08 01:18:29;;;;;;;10.82;7.30;;;;;;;19.59;57.18;93104.06;2051545;70;20555;-76
2023/09/08 01:21:16;;;;;;;10.15;7.55;;;;;;;19.43;57.09;93109.97;2054964;70;20663;-77
2023/09/08 01:23:43;;;;;;;8.60;7.00;;;;;;;19.58;55.86;93108.31;2055058;70;20221;-77
2023/09/08 01:26:12;;;;;;;9.50;7.38;;;;;;;19.49;57.02;93098.00;2055009;70;20154;-77
2023/09/08 01:28:40;;;;;;;12.25;7.07;;;;;;;19.62;55.13;93099.91;2054676;70;20126;-77
2023/09/08 01:31:07;;;;;;;10.68;6.88;;;;;;;19.48;56.54;93099.41;2054930;70;20700;-78
2023/09/08 01:33:33;;;;;;;11.50;7.50;;;;;;;19.58;54.70;93096.91;2050964;70;20177;-77
2023/09/08 01:35:59;;;;;;;9.60;7.03;;;;;;;19.62;55.27;93102.03;2051183;70;20184;-76
2023/09/08 01:38:28;;;;;;;10.05;7.60;;;;;;;19.60;55.06;93101.94;2051316;70;20177;-76
2023/09/08 01:40:58;;;;;;;11.07;7.13;;;;;;;19.67;55.01;93095.78;2048508;70;20514;-75
2023/09/08 01:43:23;;;;;;;9.20;7.47;;;;;;;19.67;55.17;93092.22;2051591;70;20157;-76
2023/09/08 01:45:52;;;;;;;10.55;7.47;;;;;;;19.37;56.00;93103.28;2051499;70;20154;-76
2023/09/08 01:48:18;;;;;;;9.65;7.50;;;;;;;19.50;55.44;93100.19;2048710;70;20165;-76
2023/09/08 01:50:43;;;;;;;9.02;7.28;;;;;;;19.65;54.96;93101.44;2051345;70;20228;-76
2023/09/08 01:53:09;;;;;;;10.32;7.22;;;;;;;19.62;55.45;93093.47;2051624;70;20130;-76
2023/09/08 01:55:37;;;;;;;10.43;7.22;;;;;;;19.53;55.94;93093.16;2051371;70;20260;-76
2023/09/08 01:58:03;;;;;;;11.10;7.20;;;;;;;19.64;56.16;93091.41;2051221;70;20194;-76
2023/09/08 02:00:29;;;;;;;10.80;7.18;;;;;;;19.47;57.16;93090.13;2048834;70;20208;-76
2023/09/08 02:02:56;;;;;;;9.07;7.30;;;;;;;19.16;57.63;93099.03;2048569;70;20172;-76
2023/09/08 02:05:25;;;;;;;10.60;7.57;;;;;;;19.23;57.58;93092.13;2045767;70;20142;-76
2023/09/08 02:07:51;;;;;;;9.45;7.28;;;;;;;19.34;56.31;93098.94;2051571;70;20150;-78
2023/09/08 02:10:20;;;;;;;8.98;7.15;;;;;;;19.43;56.67;93086.41;2048885;70;20149;-76
2023/09/08 02:12:46;;;;;;;10.88;7.50;;;;;;;19.44;56.10;93094.28;2048688;70;20166;-77
2023/09/08 02:15:12;;;;;;;8.77;6.82;;;;;;;19.30;57.29;93088.81;2048779;70;20188;-77
2023/09/08 02:17:38;;;;;;;9.55;7.53;;;;;;;19.46;56.14;93087.91;2054569;69;20166;-76
2023/09/08 02:20:05;;;;;;;10.18;7.28;;;;;;;19.17;56.76;93097.63;2054701;70;20180;-76
2023/09/08 02:22:31;;;;;;;10.65;7.70;;;;;;;19.14;56.72;93093.94;2051559;70;20158;-76
2023/09/08 02:24:58;;;;;;;9.00;7.22;;;;;;;19.29;57.09;93089.50;2048928;70;20728;-76
2023/09/08 02:27:24;;;;;;;9.77;6.75;;;;;;;19.40;56.76;93094.16;2051439;70;20136;-77
2023/09/08 02:29:51;;;;;;;12.32;7.03;;;;;;;19.26;58.89;93096.50;2051510;70;20162;-77
2023/09/08 02:32:16;;;;;;;9.20;7.03;;;;;;;19.08;58.79;93090.16;2048480;70;20157;-77
2023/09/08 02:34:43;;;;;;;11.45;7.10;;;;;;;19.01;58.29;93092.81;2048742;70;20150;-76
2023/09/08 02:37:09;;;;;;;10.32;7.75;;;;;;;19.10;58.42;93090.22;2051441;70;20587;-75
2023/09/08 02:39:35;;;;;;;9.52;7.20;;;;;;;19.14;55.89;93088.25;2050783;70;20582;-76
2023/09/08 02:42:01;;;;;;;11.30;7.30;;;;;;;19.26;55.82;93093.66;2048162;70;20626;-76
2023/09/08 02:44:27;;;;;;;9.35;6.80;;;;;;;19.25;55.07;93092.94;2050888;70;20236;-76
2023/09/08 02:46:53;;;;;;;8.77;7.28;;;;;;;19.13;55.28;93098.19;2050851;70;20173;-78
2023/09/08 02:49:19;;;;;;;12.23;7.78;;;;;;;19.26;55.75;93097.25;2050891;70;20181;-77
2023/09/08 02:51:47;;;;;;;10.60;6.97;;;;;;;19.25;54.92;93095.06;2050841;70;20161;-77
2023/09/08 02:54:12;;;;;;;8.25;6.97;;;;;;;19.32;55.59;93101.69;2050888;70;20662;-77
2023/09/08 02:56:38;;;;;;;9.60;6.93;;;;;;;19.22;55.85;93099.94;2048233;70;20156;-76
2023/09/08 02:59:03;;;;;;;8.88;6.72;;;;;;;19.23;55.00;93092.13;2054345;69;20174;-77
2023/09/08 03:01:30;;;;;;;9.05;7.22;;;;;;;19.25;55.12;93100.75;2054308;70;20166;-77
2023/09/08 03:03:56;;;;;;;9.85;7.25;;;;;;;19.22;55.73;93102.06;2054104;70;20601;-77
2023/09/08 03:06:22;;;;;;;9.60;7.07;;;;;;;19.13;56.40;93101.06;2048070;70;20161;-77
2023/09/08 03:08:49;;;;;;;10.15;7.18;;;;;;;19.17;56.50;93098.34;2050745;70;20232;-78
2023/09/08 03:11:14;;;;;;;8.75;7.20;;;;;;;19.17;55.45;93106.19;2050824;70;20157;-79
2023/09/08 03:13:41;;;;;;;10.55;7.13;;;;;;;19.23;55.74;93106.38;2054112;70;20153;-78
2023/09/08 03:16:09;;;;;;;8.35;7.10;;;;;;;18.97;55.28;93101.22;2054474;70;20196;-77
2023/09/08 03:18:36;;;;;;;10.18;6.93;;;;;;;18.96;55.74;93096.16;2050734;70;20150;-77
2023/09/08 03:21:08;;;;;;;8.80;7.13;;;;;;;19.02;54.97;93097.13;2054152;70;20260;-78
2023/09/08 03:23:42;;;;;;;10.30;7.10;;;;;;;18.93;57.10;93094.63;2051153;70;20148;-77
2023/09/08 03:26:08;;;;;;;13.35;7.13;;;;;;;18.99;56.80;93100.56;2054540;70;20618;-78
2023/09/08 03:28:36;;;;;;;10.95;7.40;;;;;;;18.96;56.04;93096.88;2051396;70;20161;-78
2023/09/08 03:31:05;;;;;;;9.30;6.65;;;;;;;18.83;55.90;93085.69;2051406;70;20220;-77
2023/09/08 03:33:33;;;;;;;10.13;6.65;;;;;;;19.04;55.69;93102.88;2051283;70;20154;-77
2023/09/08 03:36:00;;;;;;;9.10;7.15;;;;;;;18.97;55.14;93106.19;2051304;70;20173;-78
2023/09/08 03:38:26;;;;;;;9.27;7.35;;;;;;;18.84;56.83;93110.00;2051352;70;20237;-77
2023/09/08 03:40:53;;;;;;;11.40;7.22;;;;;;;18.88;56.11;93104.44;2051226;70;20610;-78
2023/09/08 03:43:19;;;;;;;10.55;7.53;;;;;;;18.91;56.60;93103.84;2051259;70;20150;-79
2023/09/08 03:45:44;;;;;;;10.38;7.28;;;;;;;18.80;58.76;93102.00;2051365;70;20146;-77
2023/09/08 03:48:10;;;;;;;9.60;6.43;;;;;;;18.72;58.26;93107.41;2051257;70;20638;-77
2023/09/08 03:50:37;;;;;;;11.30;6.97;;;;;;;18.87;56.10;93100.09;2051033;70;20174;-78
2023/09/08 03:53:03;;;;;;;10.18;6.75;;;;;;;18.57;58.33;93108.25;2054575;70;20515;-78
2023/09/08 03:55:29;;;;;;;8.75;6.85;;;;;;;18.53;57.52;93103.84;2048455;70;20150;-77
2023/09/08 03:57:55;;;;;;;14.93;6.90;;;;;;;18.60;58.17;93106.91;2048526;70;20263;-77
2023/09/08 04:00:21;;;;;;;9.63;6.80;;;;;;;18.60;58.03;93107.69;2054590;69;20153;-78
2023/09/08 04:02:49;;;;;;;9.20;6.88;;;;;;;18.59;58.48;93109.03;2044141;70;20265;-77
2023/09/08 04:05:17;;;;;;;12.35;6.95;;;;;;;18.61;57.41;93103.44;2047686;70;20162;-77
2023/09/08 04:07:47;;;;;;;9.05;6.60;;;;;;;18.57;56.73;93113.94;2047784;70;20146;-78
2023/09/08 04:10:16;;;;;;;9.27;7.43;;;;;;;18.52;56.50;93105.25;2044442;70;20159;-78
2023/09/08 04:12:42;;;;;;;9.40;7.07;;;;;;;18.42;56.74;93112.69;2044336;70;20157;-77
2023/09/08 04:15:09;;;;;;;9.00;7.25;;;;;;;18.55;56.55;93117.44;2047648;70;20261;-77
2023/09/08 04:17:35;;;;;;;9.27;7.20;;;;;;;18.66;56.80;93112.88;2044288;70;20178;-77
2023/09/08 04:20:04;;;;;;;9.98;7.30;;;;;;;18.57;58.07;93122.50;2047838;70;20154;-78
2023/09/08 04:22:34;;;;;;;11.20;7.68;;;;;;;18.14;58.49;93118.72;2047699;70;20542;-78
2023/09/08 04:25:02;;;;;;;11.38;7.53;;;;;;;18.33;57.99;93113.75;2047652;70;20178;-78
2023/09/08 04:27:28;;;;;;;9.52;7.05;;;;;;;18.41;56.98;93114.78;2047602;70;20162;-77
2023/09/08 04:29:54;;;;;;;11.00;6.93;;;;;;;18.31;57.77;93116.53;2047790;70;20179;-78
2023/09/08 04:32:20;;;;;;;9.00;7.25;;;;;;;18.32;57.07;93113.00;2044285;70;20166;-78
2023/09/08 04:34:49;;;;;;;10.07;7.18;;;;;;;18.24;58.52;93115.56;2041391;70;20178;-77
2023/09/08 04:37:16;;;;;;;11.73;7.57;;;;;;;18.11;58.38;93114.34;2046929;70;20201;-76
2023/09/08 04:39:42;;;;;;;9.15;7.43;;;;;;;18.18;58.28;93121.72;2044422;70;20151;-77
2023/09/08 04:42:08;;;;;;;8.65;7.05;;;;;;;18.21;57.42;93120.44;2047781;70;20181;-77
2023/09/08 04:44:34;;;;;;;11.45;7.32;;;;;;;18.21;57.17;93125.41;2047877;70;20146;-77
2023/09/08 04:47:00;;;;;;;12.90;7.47;;;;;;;18.24;57.08;93124.84;2047667;70;20614;-76
2023/09/08 04:49:28;;;;;;;13.38;7.25;;;;;;;18.32;56.78;93130.09;2044324;70;20189;-77
2023/09/08 04:51:56;;;;;;;9.05;7.32;;;;;;;18.27;57.17;93114.97;2044415;70;20154;-78
2023/09/08 04:54:26;;;;;;;10.52;6.88;;;;;;;18.31;58.02;93125.06;2044595;70;20530;-78
2023/09/08 04:56:54;;;;;;;12.73;7.38;;;;;;;18.34;58.08;93129.47;2044512;70;20552;-76
2023/09/08 04:59:22;;;;;;;10.45;6.88;;;;;;;18.28;58.37;93125.00;2044155;70;20217;-79
2023/09/08 05:01:50;;;;;;;10.05;7.03;;;;;;;18.16;58.71;93126.63;2044642;70;20217;-77
2023/09/08 05:04:18;;;;;;;12.85;7.80;;;;;;;18.06;58.59;93129.09;2044675;70;20162;-81
2023/09/08 05:06:44;;;;;;;14.65;7.95;;;;;;;18.02;58.69;93138.94;2047949;70;20747;-80
2023/09/08 05:09:10;;;;;;;14.00;8.45;;;;;;;18.00;59.31;93124.59;2047702;70;20146;-80
2023/09/08 05:11:35;;;;;;;9.68;7.65;;;;;;;18.07;58.99;93134.13;2047745;70;20269;-80
2023/09/08 05:14:02;;;;;;;11.65;7.63;;;;;;;17.98;59.27;93130.22;2047902;70;20566;-78
2023/09/08 05:16:39;;;;;;;9.73;7.10;;;;;;;18.06;58.46;93141.22;2047738;70;20169;-78
2023/09/08 05:19:07;;;;;;;11.10;7.53;;;;;;;18.09;58.93;93148.44;2045653;70;20606;-81
2023/09/08 05:21:34;;;;;;;8.30;6.75;;;;;;;18.09;57.96;93139.16;2048008;70;20615;-77
2023/09/08 05:24:00;;;;;;;9.25;6.72;;;;;;;18.08;58.15;93144.13;2048081;70;20593;-78
2023/09/08 05:26:25;;;;;;;9.63;6.85;;;;;;;18.02;57.71;93146.75;2047907;70;20619;-80
2023/09/08 05:28:52;;;;;;;13.82;7.32;;;;;;;18.16;56.87;93149.44;2048110;70;20511;-78
2023/09/08 05:31:17;;;;;;;11.10;7.07;;;;;;;17.95;58.33;93142.91;2047771;70;20618;-80
2023/09/08 05:33:44;;;;;;;9.23;6.82;;;;;;;18.06;59.52;93144.06;2047810;70;20218;-78
2023/09/08 05:36:10;;;;;;;10.80;7.47;;;;;;;18.03;58.56;93151.06;2051077;70;20150;-79
2023/09/08 05:38:36;;;;;;;13.32;7.35;;;;;;;18.05;57.52;93151.13;2051009;70;20158;-78
2023/09/08 05:41:04;;;;;;;13.70;7.38;;;;;;;17.94;58.73;93143.56;2051221;70;20163;-79
2023/09/08 05:43:30;;;;;;;10.57;7.40;;;;;;;17.95;59.66;93153.56;2047831;70;20226;-83
2023/09/08 05:45:57;;;;;;;8.70;6.93;;;;;;;17.99;60.49;93160.16;2048076;70;20183;-78
2023/09/08 05:48:24;;;;;;;11.20;6.80;;;;;;;17.97;60.11;93162.22;2047842;70;20245;-79
2023/09/08 05:50:49;;;;;;;9.70;7.20;;;;;;;18.03;57.68;93160.34;2047911;70;20142;-79
2023/09/08 05:53:16;;;;;;;10.70;7.28;;;;;;;18.02;58.88;93163.84;2047900;70;20170;-78
2023/09/08 05:55:43;;;;;;;9.23;7.05;;;;;;;18.10;57.39;93166.25;2047752;70;20237;-78
2023/09/08 05:58:10;;;;;;;9.73;7.00;;;;;;;18.01;58.91;93165.22;2051313;70;20197;-78
2023/09/08 06:00:36;;;;;;;10.60;7.22;;;;;;;18.20;58.01;93164.56;2048032;70;20170;-77
2023/09/08 06:03:02;;;;;;;9.25;6.78;;;;;;;18.06;59.00;93161.16;2048050;70;20162;-78
2023/09/08 06:05:28;;;;;;;9.15;6.80;;;;;;;18.04;58.06;93158.22;2051349;70;20150;-80
2023/09/08 06:07:54;;;;;;;11.85;6.72;;;;;;;17.99;57.46;93162.28;2047899;70;20656;-79
2023/09/08 06:10:23;;;;;;;9.52;6.97;;;;;;;18.10;57.91;93161.31;2047966;70;20222;-78
2023/09/08 06:12:50;;;;;;;9.02;6.85;;;;;;;18.14;58.87;93158.63;2048060;70;20622;-82
2023/09/08 06:15:17;;;;;;;10.00;7.40;;;;;;;18.05;58.89;93162.53;2047981;70;20586;-78
2023/09/08 06:17:43;;;;;;;8.82;6.82;;;;;;;18.16;59.48;93158.72;2047913;70;20205;-79
2023/09/08 06:20:11;;;;;;;10.85;7.00;;;;;;;18.12;59.54;93155.69;2051348;70;20135;-78
2023/09/08 06:22:37;;;;;;;11.15;6.72;;;;;;;18.20;61.36;93152.44;2048000;70;20622;-78
2023/09/08 06:25:03;;;;;;;10.50;7.20;;;;;;;18.16;61.69;93153.00;2047957;70;20146;-77
2023/09/08 06:27:28;;;;;;;8.68;6.93;;;;;;;18.11;59.76;93145.69;2045053;70;20146;-77
2023/09/08 06:29:55;;;;;;;9.77;7.40;;;;;;;18.09;59.38;93148.44;2047871;70;20152;-77
2023/09/08 06:32:20;;;;;;;10.20;7.60;;;;;;;18.00;59.84;93150.22;2047777;70;20143;-77
2023/09/08 06:34:48;;;;;;;9.20;6.95;;;;;;;18.16;58.94;93146.59;2047942;70;20329;-78
2023/09/08 06:37:14;;;;;;;7.82;6.28;;;;;;;17.85;59.84;93133.22;2047894;70;20221;-79
2023/09/08 06:39:40;;;;;;;8.55;6.68;;;;;;;18.24;58.13;93152.59;2047839;70;20154;-80
2023/09/08 06:42:06;;;;;;;9.23;6.72;;;;;;;18.20;57.56;93155.28;2045261;70;20257;-77
2023/09/08 06:44:31;;;;;;;9.80;6.75;;;;;;;18.13;58.06;93140.06;2047876;70;20605;-77
2023/09/08 06:46:58;;;;;;;9.15;6.82;;;;;;;18.22;57.36;93152.50;2051041;70;20138;-78
2023/09/08 06:49:26;;;;;;;11.30;6.88;;;;;;;18.56;58.05;93143.84;2047948;70;20183;-77
2023/09/08 06:51:51;;;;;;;11.65;6.70;;;;;;;18.75;56.85;93137.47;2047988;70;20135;-78
2023/09/08 06:54:17;;;;;;;9.25;6.80;;;;;;;18.98;56.38;93145.47;2048005;70;20237;-78
2023/09/08 06:56:44;;;;;;;9.98;6.90;;;;;;;19.02;55.67;93142.78;2045242;70;20663;-78
2023/09/08 06:59:10;;;;;;;7.90;6.72;;;;;;;19.22;55.79;93145.63;2047746;70;20146;-78
2023/09/08 07:01:36;;;;;;;11.60;7.50;;;;;;;19.62;54.12;93147.75;2047702;70;20168;-76
2023/09/08 07:04:02;;;;;;;11.88;6.72;;;;;;;19.76;54.19;93146.09;2048034;70;20233;-77
2023/09/08 07:06:30;;;;;;;12.80;7.38;;;;;;;20.05;52.98;93144.91;2045396;70;20135;-78
2023/09/08 07:08:56;;;;;;;9.02;7.00;;;;;;;20.30;52.86;93152.16;2047848;70;20169;-77
2023/09/08 07:11:23;;;;;;;8.32;6.65;;;;;;;20.11;51.93;93141.50;2045050;70;20606;-77
2023/09/08 07:13:49;;;;;;;9.15;6.60;;;;;;;20.18;52.89;93142.44;2047764;70;20610;-78
2023/09/08 07:16:15;;;;;;;9.20;6.60;;;;;;;20.37;52.22;93141.63;2047742;70;20138;-79
2023/09/08 07:18:41;;;;;;;9.20;6.88;;;;;;;20.71;51.72;93138.38;2051050;70;20158;-78
2023/09/08 07:21:07;;;;;;;9.05;6.40;;;;;;;21.20;50.68;93134.81;2045162;70;20166;-77
2023/09/08 07:23:36;;;;;;;9.13;6.40;;;;;;;21.38;48.66;93140.34;2051135;70;20126;-77
2023/09/08 07:26:02;;;;;;;8.98;6.45;;;;;;;21.98;48.67;93142.63;2047814;70;20593;-78
2023/09/08 07:28:30;;;;;;;9.75;6.55;;;;;;;22.25;50.17;93144.78;2050761;70;20607;-78
2023/09/08 07:31:03;;;;;;;10.20;7.07;;;;;;;21.99;48.24;93141.97;2047742;70;20150;-80
2023/09/08 07:33:31;;;;;;;9.40;6.80;;;;;;;22.25;48.71;93138.31;2047605;70;20595;-78
2023/09/08 07:36:08;;;;;;;8.77;6.70;;;;;;;21.93;50.31;93138.19;2050893;70;20150;-79
2023/09/08 07:38:34;;;;;;;8.95;6.60;;;;;;;21.57;51.23;93130.84;2047774;70;20161;-78
2023/09/08 07:41:02;;;;;;;9.52;6.32;;;;;;;21.88;51.02;93133.78;2050476;70;20184;-79
2023/09/08 07:43:30;;;;;;;9.38;6.35;;;;;;;22.67;50.30;93134.97;2051043;70;20135;-79
2023/09/08 07:45:56;;;;;;;10.52;6.45;;;;;;;22.82;49.89;93134.63;2045089;70;20143;-79
2023/09/08 07:48:22;;;;;;;8.70;6.57;;;;;;;23.33;48.30;93129.25;2050835;70;20509;-78
2023/09/08 07:50:47;;;;;;;13.27;6.80;;;;;;;23.75;48.62;93131.50;2051175;70;20185;-78
2023/09/08 07:53:13;;;;;;;8.82;6.65;;;;;;;23.80;47.40;93130.16;2051026;70;20237;-79
2023/09/08 07:55:39;;;;;;;10.50;6.85;;;;;;;24.25;47.05;93125.91;2050957;70;20221;-78
2023/09/08 07:58:04;;;;;;;8.50;6.50;;;;;;;24.77;45.27;93133.94;2050913;70;20154;-77
2023/09/08 08:00:32;;;;;;;9.65;6.38;;;;;;;24.46;45.80;93126.25;2047499;70;20153;-79
2023/09/08 08:02:59;;;;;;;12.07;6.70;;;;;;;24.88;45.05;93126.19;2050744;70;20237;-79
2023/09/08 08:05:25;;;;;;;12.43;6.50;;;;;;;24.98;44.43;93129.22;2051201;70;20146;-79
2023/09/08 08:07:51;;;;;;;7.75;6.25;;;;;;;25.13;44.35;93127.25;2051232;70;20142;-80
2023/09/08 08:10:18;;;;;;;11.60;7.05;;;;;;;24.84;46.56;93126.84;2051556;70;20150;-81
2023/09/08 08:12:44;;;;;;;7.82;6.40;;;;;;;24.52;47.08;93118.47;2051693;70;20236;-80
2023/09/08 08:15:10;;;;;;;11.07;7.07;;;;;;;24.79;47.30;93122.47;2051665;70;20589;-81
2023/09/08 08:17:37;;;;;;;9.48;6.72;;;;;;;25.04;46.06;93108.41;2048277;70;20525;-80
2023/09/08 08:20:09;;;;;;;11.85;7.78;;;;;;;25.87;45.51;93119.50;2048438;70;20134;-80
2023/09/08 08:22:38;;;;;;;10.90;6.30;;;;;;;26.22;44.46;93114.78;2051682;70;20193;-79
2023/09/08 08:25:05;;;;;;;8.90;6.05;;;;;;;26.46;44.14;93122.94;2051798;70;20191;-80
2023/09/08 08:27:31;;;;;;;7.10;6.40;;;;;;;26.57;43.01;93110.78;2048401;70;20150;-79
2023/09/08 08:30:00;;;;;;;12.35;6.47;;;;;;;27.07;42.46;93103.84;2048321;70;20157;-79
2023/09/08 08:32:29;;;;;;;8.00;6.10;;;;;;;27.27;40.86;93117.72;2051467;70;20275;-79
2023/09/08 08:34:56;;;;;;;7.65;6.18;;;;;;;27.43;40.52;93110.56;2051473;70;20155;-79
2023/09/08 08:37:22;;;;;;;7.10;6.32;;;;;;;27.52;39.93;93114.94;2048497;70;20150;-80
2023/09/08 08:39:48;;;;;;;7.82;6.40;;;;;;;27.13;40.42;93106.09;2051652;70;20234;-80
2023/09/08 08:42:14;;;;;;;9.80;6.50;;;;;;;27.36;38.31;93109.81;2048351;70;20142;-79
2023/09/08 08:44:40;;;;;;;7.18;6.00;;;;;;;28.01;38.53;93107.16;2051595;70;20241;-80
2023/09/08 08:47:07;;;;;;;7.72;6.18;;;;;;;28.36;37.25;93101.41;2051490;70;20529;-79
2023/09/08 08:49:33;;;;;;;6.68;5.97;;;;;;;28.81;37.69;93096.31;2051586;70;20141;-80
2023/09/08 08:52:07;;;;;;;7.10;6.40;;;;;;;28.38;36.65;93104.31;2051644;70;20142;-80
2023/09/08 08:54:39;;;;;;;9.18;6.57;;;;;;;29.22;36.40;93101.34;2051606;70;20146;-80
2023/09/08 08:57:05;;;;;;;9.27;6.40;;;;;;;29.16;37.63;93099.19;2048361;70;20154;-80
2023/09/08 08:59:31;;;;;;;8.98;6.45;;;;;;;28.97;37.34;93095.63;2051629;70;20582;-79
2023/09/08 09:01:59;;;;;;;8.23;6.80;;;;;;;29.08;36.54;93094.13;2051472;70;20169;-79
2023/09/08 09:04:25;;;;;;;10.35;6.10;;;;;;;28.98;36.50;93093.44;2051427;70;20576;-80
2023/09/08 09:06:52;;;;;;;9.30;6.47;;;;;;;29.19;35.96;93091.94;2048356;70;20142;-80
2023/09/08 09:09:19;;;;;;;7.55;6.15;;;;;;;29.67;36.49;93087.41;2048464;70;20239;-80
2023/09/08 09:11:44;;;;;;;6.82;5.90;;;;;;;30.29;35.76;93087.81;2051693;70;20702;-80
2023/09/08 09:14:11;;;;;;;8.00;6.28;;;;;;;30.80;36.11;93084.50;2051439;70;20142;-80
2023/09/08 09:16:42;;;;;;;6.72;5.95;;;;;;;30.37;32.93;93087.72;2048500;70;20201;-80
2023/09/08 09:19:08;;;;;;;8.90;6.13;;;;;;;30.82;34.41;93079.38;2051525;70;20154;-81
2023/09/08 09:21:46;;;;;;;7.25;6.13;;;;;;;31.33;33.66;93075.97;2051363;70;20135;-80
2023/09/08 09:24:29;;;;;;;6.93;6.22;;;;;;;31.67;33.30;93077.03;2048444;70;20154;-81
2023/09/08 09:26:56;;;;;;;7.25;6.00;;;;;;;32.08;32.89;93065.59;2048313;70;20173;-81
2023/09/08 09:29:22;;;;;;;6.68;6.05;;;;;;;31.83;32.25;93070.28;2051500;70;20178;-81
2023/09/08 09:32:10;;;;;;;6.72;5.47;;;;;;;32.25;31.32;93063.13;2045519;70;20290;-81
2023/09/08 09:34:48;;;;;;;7.40;5.80;;;;;;;32.75;31.79;93066.72;2048315;70;20172;-81
2023/09/08 09:37:14;;;;;;;6.88;6.15;;;;;;;31.93;32.57;93055.59;2051544;70;20141;-81
2023/09/08 09:39:40;;;;;;;8.40;6.25;;;;;;;32.02;31.42;93056.91;2051590;70;20150;-81
2023/09/08 09:42:06;;;;;;;6.90;6.20;;;;;;;33.16;32.20;93062.38;2051498;70;20154;-81
2023/09/08 09:44:32;;;;;;;6.25;5.57;;;;;;;33.86;30.87;93048.59;2051479;70;20146;-81
2023/09/08 09:47:00;;;;;;;8.70;6.43;;;;;;;34.14;30.93;93050.19;2051399;70;20629;-81
2023/09/08 09:49:31;;;;;;;8.77;6.00;;;;;;;34.13;30.98;93057.50;2051425;70;20146;-81
2023/09/08 09:51:59;;;;;;;7.75;5.53;;;;;;;34.10;29.22;93052.47;2051648;70;20139;-82
2023/09/08 09:54:24;;;;;;;6.28;5.68;;;;;;;33.34;29.91;93056.91;2051495;70;20665;-82
2023/09/08 09:56:53;;;;;;;6.65;6.03;;;;;;;33.65;31.32;93047.56;2051622;70;20142;-82
2023/09/08 09:59:18;;;;;;;7.35;5.50;;;;;;;34.25;29.86;93038.97;2051473;70;20150;-82
2023/09/08 10:01:46;;;;;;;8.98;6.80;;;;;;;33.50;31.07;93044.25;2051165;70;20142;-81
2023/09/08 10:04:16;;;;;;;8.32;5.75;;;;;;;35.29;29.04;93041.53;2051294;70;20138;-82
2023/09/08 10:06:44;;;;;;;8.43;5.53;;;;;;;34.37;28.93;93037.97;2051464;70;20146;-82
2023/09/08 10:09:15;;;;;;;6.63;5.88;;;;;;;35.25;28.24;93038.72;2051435;70;20142;-82
2023/09/08 10:11:48;;;;;;;6.85;5.55;;;;;;;36.33;28.13;93039.22;2051503;70;20619;-82
2023/09/08 10:14:18;;;;;;;7.55;5.03;;;;;;;36.47;27.37;93032.22;2051584;70;20650;-82
2023/09/08 10:16:49;;;;;;;8.55;5.80;;;;;;;34.40;27.82;93024.72;2051309;70;20149;-82
2023/09/08 10:19:16;;;;;;;5.70;5.10;;;;;;;36.55;27.32;93023.16;2051210;70;20164;-81
2023/09/08 10:21:45;;;;;;;6.60;5.57;;;;;;;37.54;26.92;93021.28;2051440;70;20653;-81
2023/09/08 10:24:22;;;;;;;6.55;5.30;;;;;;;37.65;25.48;93028.19;2051100;70;20527;-81
2023/09/08 10:27:01;;;;;;;6.85;4.93;;;;;;;38.34;24.56;93024.16;2048886;70;20182;-82
2023/09/08 10:29:28;;;;;;;6.07;5.55;;;;;;;38.41;25.41;93030.53;2046179;70;20677;-81
2023/09/08 10:31:55;;;;;;;5.90;5.38;;;;;;;38.01;26.63;93025.41;2045635;70;20576;-80
2023/09/08 10:34:24;;;;;;;8.00;5.95;;;;;;;38.38;25.27;93018.13;2049375;70;20158;-80
2023/09/08 10:36:50;;;;;;;7.50;6.00;;;;;;;38.38;26.00;93015.19;2049478;70;20154;-81
2023/09/08 10:39:37;;;;;;;7.80;6.10;;;;;;;38.66;26.55;93004.47;2048334;70;20145;-82
2023/09/08 10:42:21;;;;;;;9.55;5.93;;;;;;;40.34;25.51;93016.25;2048215;70;20154;-81
2023/09/08 10:44:49;;;;;;;6.70;5.72;;;;;;;41.97;23.21;93015.47;2048031;70;20127;-81
2023/09/08 10:47:22;;;;;;;6.13;5.55;;;;;;;42.14;22.51;93013.06;2047918;70;20226;-82
2023/09/08 10:49:50;;;;;;;6.55;5.80;;;;;;;41.50;23.01;93006.84;2048335;70;20270;-80
2023/09/08 10:52:16;;;;;;;6.45;5.85;;;;;;;40.93;23.37;93000.88;2048106;70;20151;-81
2023/09/08 10:54:49;;;;;;;6.25;5.38;;;;;;;42.69;22.12;93006.38;2050864;70;20154;-80
2023/09/08 10:57:20;;;;;;;8.40;5.50;;;;;;;42.67;22.63;92995.38;2054997;70;20134;-81
2023/09/08 11:00:12;;;;;;;10.25;5.32;;;;;;;43.86;22.24;92995.03;2055100;69;20200;-81
2023/09/08 11:02:47;;;;;;;7.10;5.07;;;;;;;45.58;20.45;92979.34;2054809;70;20189;-81
2023/09/08 11:05:15;;;;;;;6.10;5.40;;;;;;;45.09;19.38;92981.97;2055009;69;20146;-82
2023/09/08 11:07:44;;;;;;;6.60;5.28;;;;;;;45.21;19.96;92983.41;2055546;70;20134;-81
2023/09/08 11:10:12;;;;;;;6.15;5.10;;;;;;;45.44;19.83;92977.38;2055087;70;20181;-81
2023/09/08 11:12:38;;;;;;;6.75;4.57;;;;;;;44.83;20.06;92975.50;2055000;70;20640;-84
2023/09/08 11:15:07;;;;;;;5.78;5.25;;;;;;;44.70;20.57;92972.63;2055169;70;20142;-82
2023/09/08 11:17:34;;;;;;;5.25;4.35;;;;;;;48.72;18.21;92990.91;2054862;70;20150;-82
2023/09/08 11:20:01;;;;;;;6.80;4.25;;;;;;;46.45;18.75;92971.06;2055448;70;20134;-84
2023/09/08 11:22:27;;;;;;;5.78;5.00;;;;;;;43.51;21.08;92963.81;2055158;70;20149;-83
2023/09/08 11:24:58;;;;;;;4.43;4.03;;;;;;;45.49;18.93;92965.91;2055289;69;20253;-82
2023/09/08 11:27:25;;;;;;;7.70;4.72;;;;;;;44.94;18.61;92960.69;2055111;70;20142;-82
2023/09/08 11:29:51;;;;;;;4.72;4.22;;;;;;;46.06;18.17;92964.91;2055324;70;20517;-81
2023/09/08 11:32:16;;;;;;;4.43;3.92;;;;;;;48.32;17.15;92968.72;2055148;70;20577;-82